sensor_id;sensor_type;location;lat;lon;timestamp;pressure;altitude;pressure_sealevel;temperature;humidity
58698;BME280;44475;53.206;-6.106;2023-04-09T00:01:59;101942.31;;;23.08;38.15
58698;BME280;44475;53.206;-6.106;2023-04-09T00:04:25;101947.56;;;23.12;38.47
58698;BME280;44475;53.206;-6.106;2023-04-09T00:06:52;101950.84;;;23.17;37.99
58698;BME280;44475;53.206;-6.106;2023-04-09T00:09:18;101955.69;;;23.13;38.53
58698;BME280;44475;53.206;-6.106;2023-04-09T00:11:45;101961.78;;;23.17;38.71
58698;BME280;44475;53.206;-6.106;2023-04-09T00:14:11;101959.50;;;23.11;38.80
58698;BME280;44475;53.206;-6.106;2023-04-09T00:16:38;101953.69;;;23.15;38.63
58698;BME280;44475;53.206;-6.106;2023-04-09T00:19:05;101956.97;;;23.07;38.98
58698;BME280;44475;53.206;-6.106;2023-04-09T00:21:32;101951.28;;;23.11;39.17
58698;BME280;44475;53.206;-6.106;2023-04-09T00:23:58;101943.75;;;23.01;39.18
58698;BME280;44475;53.206;-6.106;2023-04-09T00:26:25;101942.09;;;23.12;39.22
58698;BME280;44475;53.206;-6.106;2023-04-09T00:28:51;101951.84;;;23.03;39.56
58698;BME280;44475;53.206;-6.106;2023-04-09T00:31:17;101947.56;;;23.12;39.25
58698;BME280;44475;53.206;-6.106;2023-04-09T00:33:43;101946.38;;;23.03;39.83
58698;BME280;44475;53.206;-6.106;2023-04-09T00:36:10;101941.88;;;23.02;39.74
58698;BME280;44475;53.206;-6.106;2023-04-09T00:38:36;101935.66;;;23.13;39.88
58698;BME280;44475;53.206;-6.106;2023-04-09T00:41:02;101936.44;;;23.15;39.77
58698;BME280;44475;53.206;-6.106;2023-04-09T00:43:29;101935.22;;;23.19;39.97
58698;BME280;44475;53.206;-6.106;2023-04-09T00:45:55;101941.66;;;23.05;40.00
58698;BME280;44475;53.206;-6.106;2023-04-09T00:48:22;101930.41;;;23.09;39.89
58698;BME280;44475;53.206;-6.106;2023-04-09T00:50:48;101929.44;;;23.24;39.78
58698;BME280;44475;53.206;-6.106;2023-04-09T00:53:15;101918.94;;;23.04;40.35
58698;BME280;44475;53.206;-6.106;2023-04-09T00:55:42;101928.97;;;23.17;39.88
58698;BME280;44475;53.206;-6.106;2023-04-09T00:58:09;101923.84;;;23.12;40.02
58698;BME280;44475;53.206;-6.106;2023-04-09T01:00:35;101917.69;;;22.95;40.73
58698;BME280;44475;53.206;-6.106;2023-04-09T01:03:02;101892.56;;;22.90;40.30
58698;BME280;44475;53.206;-6.106;2023-04-09T01:05:44;101922.84;;;23.00;40.25
58698;BME280;44475;53.206;-6.106;2023-04-09T01:14:00;101901.84;;;22.87;41.11
58698;BME280;44475;53.206;-6.106;2023-04-09T01:16:33;101891.16;;;23.11;40.68
58698;BME280;44475;53.206;-6.106;2023-04-09T01:19:14;101884.03;;;23.08;40.57
58698;BME280;44475;53.206;-6.106;2023-04-09T01:21:46;101869.72;;;23.04;40.92
58698;BME280;44475;53.206;-6.106;2023-04-09T01:24:18;101867.84;;;23.18;40.35
58698;BME280;44475;53.206;-6.106;2023-04-09T01:29:15;101858.66;;;23.06;40.82
58698;BME280;44475;53.206;-6.106;2023-04-09T01:31:43;101853.66;;;22.99;40.94
58698;BME280;44475;53.206;-6.106;2023-04-09T01:34:10;101850.03;;;23.12;41.00
58698;BME280;44475;53.206;-6.106;2023-04-09T01:36:39;101833.75;;;23.11;40.71
58698;BME280;44475;53.206;-6.106;2023-04-09T01:39:07;101831.44;;;23.17;40.67
58698;BME280;44475;53.206;-6.106;2023-04-09T01:41:34;101833.97;;;22.94;41.27
58698;BME280;44475;53.206;-6.106;2023-04-09T01:44:03;101826.97;;;23.03;40.97
58698;BME280;44475;53.206;-6.106;2023-04-09T01:46:30;101832.34;;;22.92;41.05
58698;BME280;44475;53.206;-6.106;2023-04-09T01:48:58;101816.69;;;23.07;41.14
58698;BME280;44475;53.206;-6.106;2023-04-09T01:51:25;101822.81;;;23.11;40.80
58698;BME280;44475;53.206;-6.106;2023-04-09T01:53:52;101821.81;;;23.12;40.90
58698;BME280;44475;53.206;-6.106;2023-04-09T01:56:19;101832.41;;;23.16;40.93
58698;BME280;44475;53.206;-6.106;2023-04-09T01:58:46;101828.16;;;23.12;41.07
58698;BME280;44475;53.206;-6.106;2023-04-09T02:01:25;101816.88;;;23.17;40.81
58698;BME280;44475;53.206;-6.106;2023-04-09T02:04:02;101817.13;;;23.14;40.94
58698;BME280;44475;53.206;-6.106;2023-04-09T02:09:20;101793.16;;;23.17;40.95
58698;BME280;44475;53.206;-6.106;2023-04-09T02:11:49;101788.56;;;23.05;41.31
58698;BME280;44475;53.206;-6.106;2023-04-09T02:14:18;101782.38;;;23.03;41.51
58698;BME280;44475;53.206;-6.106;2023-04-09T02:16:47;101783.56;;;22.98;41.58
58698;BME280;44475;53.206;-6.106;2023-04-09T02:19:14;101785.53;;;23.09;41.30
58698;BME280;44475;53.206;-6.106;2023-04-09T02:21:41;101760.41;;;23.04;41.32
58698;BME280;44475;53.206;-6.106;2023-04-09T02:24:07;101757.41;;;23.21;41.19
58698;BME280;44475;53.206;-6.106;2023-04-09T02:26:33;101736.91;;;23.02;41.33
58698;BME280;44475;53.206;-6.106;2023-04-09T02:29:00;101742.44;;;23.13;41.10
58698;BME280;44475;53.206;-6.106;2023-04-09T02:31:26;101735.53;;;23.21;41.14
58698;BME280;44475;53.206;-6.106;2023-04-09T02:33:52;101739.25;;;23.19;41.26
58698;BME280;44475;53.206;-6.106;2023-04-09T02:36:19;101732.25;;;23.15;41.32
58698;BME280;44475;53.206;-6.106;2023-04-09T02:38:45;101736.53;;;23.06;41.64
58698;BME280;44475;53.206;-6.106;2023-04-09T02:41:11;101738.94;;;23.11;41.37
58698;BME280;44475;53.206;-6.106;2023-04-09T02:43:38;101744.19;;;23.14;41.46
58698;BME280;44475;53.206;-6.106;2023-04-09T02:46:06;101749.53;;;23.16;40.97
58698;BME280;44475;53.206;-6.106;2023-04-09T02:48:33;101748.00;;;23.25;41.08
58698;BME280;44475;53.206;-6.106;2023-04-09T02:51:00;101746.56;;;23.19;41.21
58698;BME280;44475;53.206;-6.106;2023-04-09T02:53:26;101738.59;;;23.16;41.28
58698;BME280;44475;53.206;-6.106;2023-04-09T02:55:52;101732.25;;;23.15;41.44
58698;BME280;44475;53.206;-6.106;2023-04-09T02:58:18;101736.97;;;23.13;41.55
58698;BME280;44475;53.206;-6.106;2023-04-09T03:00:45;101737.31;;;23.08;41.56
58698;BME280;44475;53.206;-6.106;2023-04-09T03:03:11;101740.72;;;22.99;41.70
58698;BME280;44475;53.206;-6.106;2023-04-09T03:05:37;101728.25;;;22.95;41.49
58698;BME280;44475;53.206;-6.106;2023-04-09T03:08:03;101739.81;;;23.12;41.68
58698;BME280;44475;53.206;-6.106;2023-04-09T03:10:30;101743.41;;;23.25;41.28
58698;BME280;44475;53.206;-6.106;2023-04-09T03:12:56;101749.19;;;23.21;41.43
58698;BME280;44475;53.206;-6.106;2023-04-09T03:15:22;101738.84;;;23.13;41.84
58698;BME280;44475;53.206;-6.106;2023-04-09T03:17:48;101736.97;;;23.13;41.59
58698;BME280;44475;53.206;-6.106;2023-04-09T03:20:15;101738.66;;;23.27;41.15
58698;BME280;44475;53.206;-6.106;2023-04-09T03:22:41;101733.00;;;23.17;41.56
58698;BME280;44475;53.206;-6.106;2023-04-09T03:25:19;101735.81;;;23.29;41.49
58698;BME280;44475;53.206;-6.106;2023-04-09T03:27:47;101727.72;;;23.27;41.33
58698;BME280;44475;53.206;-6.106;2023-04-09T03:30:21;101726.06;;;23.00;41.79
58698;BME280;44475;53.206;-6.106;2023-04-09T03:32:51;101726.72;;;23.04;41.76
58698;BME280;44475;53.206;-6.106;2023-04-09T03:35:19;101724.50;;;23.09;41.55
58698;BME280;44475;53.206;-6.106;2023-04-09T03:37:46;101715.97;;;23.14;41.89
58698;BME280;44475;53.206;-6.106;2023-04-09T03:40:17;101718.09;;;22.97;41.81
58698;BME280;44475;53.206;-6.106;2023-04-09T03:42:43;101708.28;;;23.19;41.50
58698;BME280;44475;53.206;-6.106;2023-04-09T03:45:12;101709.06;;;23.21;41.64
58698;BME280;44475;53.206;-6.106;2023-04-09T03:47:43;101702.38;;;23.25;41.33
58698;BME280;44475;53.206;-6.106;2023-04-09T03:50:09;101694.63;;;23.19;41.84
58698;BME280;44475;53.206;-6.106;2023-04-09T03:52:46;101690.84;;;23.08;41.81
58698;BME280;44475;53.206;-6.106;2023-04-09T03:55:13;101687.34;;;23.06;41.94
58698;BME280;44475;53.206;-6.106;2023-04-09T03:57:39;101686.41;;;23.19;41.63
58698;BME280;44475;53.206;-6.106;2023-04-09T04:00:10;101678.69;;;23.13;41.74
58698;BME280;44475;53.206;-6.106;2023-04-09T04:02:57;101679.69;;;23.12;41.61
58698;BME280;44475;53.206;-6.106;2023-04-09T04:05:46;101674.28;;;23.23;41.74
58698;BME280;44475;53.206;-6.106;2023-04-09T04:08:14;101675.72;;;23.16;41.57
58698;BME280;44475;53.206;-6.106;2023-04-09T04:10:41;101672.47;;;23.11;41.84
58698;BME280;44475;53.206;-6.106;2023-04-09T04:13:08;101667.50;;;23.16;41.73
58698;BME280;44475;53.206;-6.106;2023-04-09T04:15:46;101669.06;;;23.07;42.19
58698;BME280;44475;53.206;-6.106;2023-04-09T04:18:13;101667.34;;;23.31;41.63
58698;BME280;44475;53.206;-6.106;2023-04-09T04:20:46;101651.81;;;23.06;42.08
58698;BME280;44475;53.206;-6.106;2023-04-09T04:23:13;101645.47;;;23.06;41.90
58698;BME280;44475;53.206;-6.106;2023-04-09T04:25:55;101640.16;;;23.16;41.84
58698;BME280;44475;53.206;-6.106;2023-04-09T04:28:37;101647.88;;;23.11;42.19
58698;BME280;44475;53.206;-6.106;2023-04-09T04:31:09;101647.16;;;23.20;41.61
58698;BME280;44475;53.206;-6.106;2023-04-09T04:33:38;101647.63;;;23.14;41.77
58698;BME280;44475;53.206;-6.106;2023-04-09T04:36:12;101650.78;;;23.21;41.83
58698;BME280;44475;53.206;-6.106;2023-04-09T04:38:42;101640.81;;;23.19;41.86
58698;BME280;44475;53.206;-6.106;2023-04-09T04:41:15;101634.88;;;23.26;41.96
58698;BME280;44475;53.206;-6.106;2023-04-09T04:43:47;101634.88;;;23.26;41.54
58698;BME280;44475;53.206;-6.106;2023-04-09T04:46:19;101623.91;;;23.14;42.14
58698;BME280;44475;53.206;-6.106;2023-04-09T04:48:46;101618.88;;;23.08;42.09
58698;BME280;44475;53.206;-6.106;2023-04-09T04:51:13;101609.72;;;23.09;42.20
58698;BME280;44475;53.206;-6.106;2023-04-09T04:53:45;101614.84;;;23.14;42.02
58698;BME280;44475;53.206;-6.106;2023-04-09T04:56:14;101618.81;;;22.96;42.33
58698;BME280;44475;53.206;-6.106;2023-04-09T04:58:48;101621.50;;;23.09;42.30
58698;BME280;44475;53.206;-6.106;2023-04-09T05:01:17;101612.97;;;23.14;42.04
58698;BME280;44475;53.206;-6.106;2023-04-09T05:03:43;101615.13;;;23.22;41.71
58698;BME280;44475;53.206;-6.106;2023-04-09T05:06:29;101607.97;;;23.08;42.37
58698;BME280;44475;53.206;-6.106;2023-04-09T05:08:57;101606.03;;;23.22;41.93
58698;BME280;44475;53.206;-6.106;2023-04-09T05:11:26;101599.06;;;23.17;42.01
58698;BME280;44475;53.206;-6.106;2023-04-09T05:13:52;101606.38;;;23.17;41.99
58698;BME280;44475;53.206;-6.106;2023-04-09T05:16:20;101597.78;;;23.10;41.90
58698;BME280;44475;53.206;-6.106;2023-04-09T05:18:53;101595.09;;;22.97;42.28
58698;BME280;44475;53.206;-6.106;2023-04-09T05:21:19;101592.25;;;23.23;41.77
58698;BME280;44475;53.206;-6.106;2023-04-09T05:23:46;101586.91;;;23.22;42.01
58698;BME280;44475;53.206;-6.106;2023-04-09T05:26:13;101580.56;;;23.21;41.80
58698;BME280;44475;53.206;-6.106;2023-04-09T05:28:58;101584.78;;;23.14;42.04
58698;BME280;44475;53.206;-6.106;2023-04-09T05:31:25;101577.84;;;23.21;41.96
58698;BME280;44475;53.206;-6.106;2023-04-09T05:33:55;101594.22;;;23.21;41.91
58698;BME280;44475;53.206;-6.106;2023-04-09T05:36:31;101579.31;;;23.14;42.16
58698;BME280;44475;53.206;-6.106;2023-04-09T05:38:58;101572.69;;;23.16;42.10
58698;BME280;44475;53.206;-6.106;2023-04-09T05:41:24;101572.25;;;23.23;42.17
58698;BME280;44475;53.206;-6.106;2023-04-09T05:44:11;101558.66;;;23.09;42.12
58698;BME280;44475;53.206;-6.106;2023-04-09T05:46:38;101568.38;;;23.14;42.09
58698;BME280;44475;53.206;-6.106;2023-04-09T05:49:06;101551.97;;;23.14;42.24
58698;BME280;44475;53.206;-6.106;2023-04-09T05:51:34;101534.47;;;23.28;42.16
58698;BME280;44475;53.206;-6.106;2023-04-09T05:54:02;101545.78;;;23.23;41.93
58698;BME280;44475;53.206;-6.106;2023-04-09T05:56:33;101542.28;;;23.21;41.99
58698;BME280;44475;53.206;-6.106;2023-04-09T05:59:00;101547.88;;;23.19;42.21
58698;BME280;44475;53.206;-6.106;2023-04-09T06:01:26;101543.91;;;23.24;42.10
58698;BME280;44475;53.206;-6.106;2023-04-09T06:03:52;101538.72;;;23.32;42.06
58698;BME280;44475;53.206;-6.106;2023-04-09T06:06:19;101515.25;;;23.05;42.01
58698;BME280;44475;53.206;-6.106;2023-04-09T06:08:45;101538.91;;;23.17;42.12
58698;BME280;44475;53.206;-6.106;2023-04-09T06:11:12;101542.41;;;23.19;42.31
58698;BME280;44475;53.206;-6.106;2023-04-09T06:13:39;101538.91;;;23.17;42.22
58698;BME280;44475;53.206;-6.106;2023-04-09T06:16:07;101543.03;;;23.23;41.97
58698;BME280;44475;53.206;-6.106;2023-04-09T06:18:35;101537.59;;;23.23;42.38
58698;BME280;44475;53.206;-6.106;2023-04-09T06:21:05;101548.41;;;23.25;42.12
58698;BME280;44475;53.206;-6.106;2023-04-09T06:23:33;101547.72;;;23.09;42.30
58698;BME280;44475;53.206;-6.106;2023-04-09T06:26:00;101556.94;;;23.20;42.38
58698;BME280;44475;53.206;-6.106;2023-04-09T06:28:30;101560.31;;;23.24;42.24
58698;BME280;44475;53.206;-6.106;2023-04-09T06:30:57;101549.94;;;23.41;41.84
58698;BME280;44475;53.206;-6.106;2023-04-09T06:33:24;101541.69;;;23.29;42.19
58698;BME280;44475;53.206;-6.106;2023-04-09T06:35:50;101540.47;;;23.33;42.21
58698;BME280;44475;53.206;-6.106;2023-04-09T06:38:16;101526.16;;;23.29;42.34
58698;BME280;44475;53.206;-6.106;2023-04-09T06:40:43;101544.97;;;23.09;42.50
58698;BME280;44475;53.206;-6.106;2023-04-09T06:43:09;101533.81;;;23.13;42.34
58698;BME280;44475;53.206;-6.106;2023-04-09T06:45:42;101521.53;;;23.18;42.62
58698;BME280;44475;53.206;-6.106;2023-04-09T06:48:08;101533.44;;;23.17;42.33
58698;BME280;44475;53.206;-6.106;2023-04-09T06:50:35;101524.53;;;23.27;42.42
58698;BME280;44475;53.206;-6.106;2023-04-09T06:53:01;101524.28;;;23.30;42.16
58698;BME280;44475;53.206;-6.106;2023-04-09T06:55:28;101517.94;;;23.29;42.02
58698;BME280;44475;53.206;-6.106;2023-04-09T06:57:54;101519.31;;;23.24;42.25
58698;BME280;44475;53.206;-6.106;2023-04-09T07:00:20;101480.63;;;23.17;41.89
58698;BME280;44475;53.206;-6.106;2023-04-09T07:02:48;101502.78;;;23.37;42.19
58698;BME280;44475;53.206;-6.106;2023-04-09T07:05:14;101507.97;;;23.17;42.64
58698;BME280;44475;53.206;-6.106;2023-04-09T07:07:41;101500.28;;;23.22;42.36
58698;BME280;44475;53.206;-6.106;2023-04-09T07:10:07;101491.75;;;23.38;41.85
58698;BME280;44475;53.206;-6.106;2023-04-09T07:12:34;101497.31;;;23.25;42.30
58698;BME280;44475;53.206;-6.106;2023-04-09T07:15:02;101499.91;;;23.27;42.27
58698;BME280;44475;53.206;-6.106;2023-04-09T07:17:29;101496.53;;;23.12;42.46
58698;BME280;44475;53.206;-6.106;2023-04-09T07:19:55;101483.41;;;23.28;42.29
58698;BME280;44475;53.206;-6.106;2023-04-09T07:22:24;101485.13;;;23.29;42.53
58698;BME280;44475;53.206;-6.106;2023-04-09T07:24:52;101480.28;;;23.22;42.46
58698;BME280;44475;53.206;-6.106;2023-04-09T07:27:28;101479.19;;;23.24;42.69
58698;BME280;44475;53.206;-6.106;2023-04-09T07:29:58;101477.31;;;23.25;42.29
58698;BME280;44475;53.206;-6.106;2023-04-09T07:32:26;101468.81;;;23.16;42.75
58698;BME280;44475;53.206;-6.106;2023-04-09T07:34:55;101467.00;;;23.28;42.27
58698;BME280;44475;53.206;-6.106;2023-04-09T07:37:22;101468.25;;;23.24;42.34
58698;BME280;44475;53.206;-6.106;2023-04-09T07:39:49;101474.56;;;23.36;42.42
58698;BME280;44475;53.206;-6.106;2023-04-09T07:42:16;101469.72;;;23.28;42.36
58698;BME280;44475;53.206;-6.106;2023-04-09T07:44:42;101461.06;;;23.35;42.30
58698;BME280;44475;53.206;-6.106;2023-04-09T07:47:09;101454.22;;;23.41;42.41
58698;BME280;44475;53.206;-6.106;2023-04-09T07:49:36;101447.72;;;23.30;42.60
58698;BME280;44475;53.206;-6.106;2023-04-09T07:52:04;101442.38;;;23.28;42.39
58698;BME280;44475;53.206;-6.106;2023-04-09T07:54:31;101438.56;;;23.43;42.29
58698;BME280;44475;53.206;-6.106;2023-04-09T07:56:58;101442.16;;;23.32;42.50
58698;BME280;44475;53.206;-6.106;2023-04-09T07:59:25;101434.06;;;23.30;42.46
58698;BME280;44475;53.206;-6.106;2023-04-09T08:01:51;101443.13;;;23.31;42.49
58698;BME280;44475;53.206;-6.106;2023-04-09T08:04:17;101444.88;;;23.32;42.18
58698;BME280;44475;53.206;-6.106;2023-04-09T08:06:44;101444.66;;;23.46;42.31
58698;BME280;44475;53.206;-6.106;2023-04-09T08:09:15;101441.78;;;23.48;42.36
58698;BME280;44475;53.206;-6.106;2023-04-09T08:11:42;101420.91;;;23.35;42.54
58698;BME280;44475;53.206;-6.106;2023-04-09T08:14:10;101409.94;;;23.47;42.50
58698;BME280;44475;53.206;-6.106;2023-04-09T08:16:41;101402.75;;;23.46;42.19
58698;BME280;44475;53.206;-6.106;2023-04-09T08:19:08;101405.34;;;23.47;41.96
58698;BME280;44475;53.206;-6.106;2023-04-09T08:21:39;101403.88;;;23.55;41.85
58698;BME280;44475;53.206;-6.106;2023-04-09T08:24:09;101381.13;;;23.54;41.92
58698;BME280;44475;53.206;-6.106;2023-04-09T08:26:37;101392.31;;;23.51;41.56
58698;BME280;44475;53.206;-6.106;2023-04-09T08:29:04;101391.94;;;23.56;41.84
58698;BME280;44475;53.206;-6.106;2023-04-09T08:31:30;101392.06;;;23.54;41.59
58698;BME280;44475;53.206;-6.106;2023-04-09T08:33:56;101405.34;;;23.59;41.53
58698;BME280;44475;53.206;-6.106;2023-04-09T08:36:23;101410.59;;;23.62;41.15
58698;BME280;44475;53.206;-6.106;2023-04-09T08:38:49;101413.44;;;23.61;41.32
58698;BME280;44475;53.206;-6.106;2023-04-09T08:41:24;101397.28;;;23.46;41.68
58698;BME280;44475;53.206;-6.106;2023-04-09T08:43:51;101402.88;;;23.56;41.46
58698;BME280;44475;53.206;-6.106;2023-04-09T08:46:21;101400.38;;;23.53;41.50
58698;BME280;44475;53.206;-6.106;2023-04-09T08:48:49;101398.66;;;23.52;41.60
58698;BME280;44475;53.206;-6.106;2023-04-09T08:51:18;101390.19;;;23.55;41.79
58698;BME280;44475;53.206;-6.106;2023-04-09T08:53:58;101393.94;;;23.42;41.91
58698;BME280;44475;53.206;-6.106;2023-04-09T08:56:25;101386.97;;;23.49;41.78
58698;BME280;44475;53.206;-6.106;2023-04-09T08:58:51;101389.09;;;23.46;42.09
58698;BME280;44475;53.206;-6.106;2023-04-09T09:01:22;101386.97;;;23.49;41.97
58698;BME280;44475;53.206;-6.106;2023-04-09T09:06:26;101369.94;;;23.69;41.90
58698;BME280;44475;53.206;-6.106;2023-04-09T09:11:26;101376.13;;;23.36;42.47
58698;BME280;44475;53.206;-6.106;2023-04-09T09:14:06;101371.53;;;23.37;42.43
58698;BME280;44475;53.206;-6.106;2023-04-09T09:16:34;101367.06;;;23.47;42.43
58698;BME280;44475;53.206;-6.106;2023-04-09T09:19:02;101374.53;;;23.57;42.38
58698;BME280;44475;53.206;-6.106;2023-04-09T09:21:28;101374.66;;;23.44;42.46
58698;BME280;44475;53.206;-6.106;2023-04-09T09:23:55;101372.53;;;23.59;42.10
58698;BME280;44475;53.206;-6.106;2023-04-09T09:26:23;101372.81;;;23.44;42.50
58698;BME280;44475;53.206;-6.106;2023-04-09T09:28:51;101370.53;;;23.49;42.69
58698;BME280;44475;53.206;-6.106;2023-04-09T09:31:19;101382.47;;;23.48;42.68
58698;BME280;44475;53.206;-6.106;2023-04-09T09:33:46;101366.59;;;23.42;42.87
58698;BME280;44475;53.206;-6.106;2023-04-09T09:36:32;101382.47;;;23.37;43.03
58698;BME280;44475;53.206;-6.106;2023-04-09T09:39:00;101363.72;;;23.55;42.73
58698;BME280;44475;53.206;-6.106;2023-04-09T09:41:35;101388.44;;;23.31;43.51
58698;BME280;44475;53.206;-6.106;2023-04-09T09:44:01;101378.63;;;23.39;43.09
58698;BME280;44475;53.206;-6.106;2023-04-09T09:46:33;101384.97;;;23.40;43.08
58698;BME280;44475;53.206;-6.106;2023-04-09T09:48:59;101385.47;;;23.57;43.09
58698;BME280;44475;53.206;-6.106;2023-04-09T09:51:26;101369.78;;;23.59;42.98
58698;BME280;44475;53.206;-6.106;2023-04-09T09:53:55;101373.53;;;23.58;43.00
58698;BME280;44475;53.206;-6.106;2023-04-09T09:56:34;101371.06;;;23.43;43.53
58698;BME280;44475;53.206;-6.106;2023-04-09T10:01:42;101382.25;;;23.75;42.85
58698;BME280;44475;53.206;-6.106;2023-04-09T10:04:12;101358.38;;;23.54;43.01
58698;BME280;44475;53.206;-6.106;2023-04-09T10:06:43;101395.41;;;23.58;43.19
58698;BME280;44475;53.206;-6.106;2023-04-09T10:09:10;101395.28;;;23.59;43.29
58698;BME280;44475;53.206;-6.106;2023-04-09T10:11:38;101403.50;;;23.59;42.91
58698;BME280;44475;53.206;-6.106;2023-04-09T10:14:08;101412.56;;;23.48;43.11
58698;BME280;44475;53.206;-6.106;2023-04-09T10:16:34;101398.75;;;23.62;43.15
58698;BME280;44475;53.206;-6.106;2023-04-09T10:19:01;101404.63;;;23.68;42.93
58698;BME280;44475;53.206;-6.106;2023-04-09T10:22:01;101396.91;;;23.51;43.35
58698;BME280;44475;53.206;-6.106;2023-04-09T10:24:32;101403.38;;;23.49;43.44
58698;BME280;44475;53.206;-6.106;2023-04-09T10:27:09;101397.41;;;23.56;43.47
58698;BME280;44475;53.206;-6.106;2023-04-09T10:29:45;101371.53;;;23.60;43.00
58698;BME280;44475;53.206;-6.106;2023-04-09T10:32:17;101388.81;;;23.49;43.36
58698;BME280;44475;53.206;-6.106;2023-04-09T10:34:46;101369.94;;;23.46;43.71
58698;BME280;44475;53.206;-6.106;2023-04-09T10:37:21;101367.72;;;23.63;43.18
58698;BME280;44475;53.206;-6.106;2023-04-09T10:39:48;101367.81;;;23.61;43.12
58698;BME280;44475;53.206;-6.106;2023-04-09T10:42:36;101354.13;;;23.49;43.29
58698;BME280;44475;53.206;-6.106;2023-04-09T10:45:14;101345.69;;;23.41;43.43
58698;BME280;44475;53.206;-6.106;2023-04-09T10:47:43;101327.03;;;23.58;43.08
58698;BME280;44475;53.206;-6.106;2023-04-09T10:52:43;101316.63;;;23.28;43.73
58698;BME280;44475;53.206;-6.106;2023-04-09T10:55:28;101311.88;;;23.54;43.29
58698;BME280;44475;53.206;-6.106;2023-04-09T10:57:54;101308.03;;;23.45;43.38
58698;BME280;44475;53.206;-6.106;2023-04-09T11:00:21;101301.69;;;23.56;43.16
58698;BME280;44475;53.206;-6.106;2023-04-09T11:05:51;101295.84;;;23.49;43.18
58698;BME280;44475;53.206;-6.106;2023-04-09T11:08:19;101283.78;;;23.63;43.22
58698;BME280;44475;53.206;-6.106;2023-04-09T11:10:47;101278.44;;;23.50;43.17
58698;BME280;44475;53.206;-6.106;2023-04-09T11:13:14;101275.22;;;23.56;43.16
58698;BME280;44475;53.206;-6.106;2023-04-09T11:15:41;101269.22;;;23.51;43.54
58698;BME280;44475;53.206;-6.106;2023-04-09T11:18:07;101255.28;;;23.77;43.10
58698;BME280;44475;53.206;-6.106;2023-04-09T11:20:38;101245.97;;;23.68;42.88
58698;BME280;44475;53.206;-6.106;2023-04-09T11:23:04;101246.97;;;23.67;42.97
58698;BME280;44475;53.206;-6.106;2023-04-09T11:25:32;101241.22;;;23.59;43.07
58698;BME280;44475;53.206;-6.106;2023-04-09T11:28:00;101234.63;;;23.73;42.85
58698;BME280;44475;53.206;-6.106;2023-04-09T11:30:27;101231.34;;;23.46;43.20
58698;BME280;44475;53.206;-6.106;2023-04-09T11:32:54;101221.75;;;23.52;43.09
58698;BME280;44475;53.206;-6.106;2023-04-09T11:35:21;101225.81;;;23.58;43.19
58698;BME280;44475;53.206;-6.106;2023-04-09T11:37:49;101221.09;;;23.60;43.08
58698;BME280;44475;53.206;-6.106;2023-04-09T11:40:22;101228.34;;;23.49;43.21
58698;BME280;44475;53.206;-6.106;2023-04-09T11:42:50;101215.16;;;23.66;43.13
58698;BME280;44475;53.206;-6.106;2023-04-09T11:45:17;101210.31;;;23.47;43.11
58698;BME280;44475;53.206;-6.106;2023-04-09T11:47:44;101205.94;;;23.67;42.85
58698;BME280;44475;53.206;-6.106;2023-04-09T11:50:12;101215.63;;;23.60;43.16
58698;BME280;44475;53.206;-6.106;2023-04-09T11:52:39;101201.19;;;23.58;43.07
58698;BME280;44475;53.206;-6.106;2023-04-09T11:55:09;101210.16;;;23.60;43.19
58698;BME280;44475;53.206;-6.106;2023-04-09T12:00:14;101186.25;;;23.74;42.78
58698;BME280;44475;53.206;-6.106;2023-04-09T12:02:48;101195.59;;;23.71;42.92
58698;BME280;44475;53.206;-6.106;2023-04-09T12:05:44;101194.78;;;23.47;43.32
58698;BME280;44475;53.206;-6.106;2023-04-09T12:08:10;101189.25;;;23.59;43.01
58698;BME280;44475;53.206;-6.106;2023-04-09T12:10:38;101201.84;;;23.50;42.98
58698;BME280;44475;53.206;-6.106;2023-04-09T12:13:09;101216.50;;;23.61;43.03
58698;BME280;44475;53.206;-6.106;2023-04-09T12:15:40;101210.69;;;23.54;43.29
58698;BME280;44475;53.206;-6.106;2023-04-09T12:18:08;101207.41;;;23.60;42.86
58698;BME280;44475;53.206;-6.106;2023-04-09T12:20:43;101204.91;;;23.68;42.60
58698;BME280;44475;53.206;-6.106;2023-04-09T12:23:10;101180.78;;;23.74;42.29
58698;BME280;44475;53.206;-6.106;2023-04-09T12:25:41;101195.72;;;23.69;42.59
58698;BME280;44475;53.206;-6.106;2023-04-09T12:28:10;101192.75;;;23.61;42.78
58698;BME280;44475;53.206;-6.106;2023-04-09T12:30:38;101195.00;;;23.56;42.88
58698;BME280;44475;53.206;-6.106;2023-04-09T12:33:05;101197.75;;;23.56;42.95
58698;BME280;44475;53.206;-6.106;2023-04-09T12:35:32;101210.06;;;23.50;43.05
58698;BME280;44475;53.206;-6.106;2023-04-09T12:37:59;101210.72;;;23.42;43.33
58698;BME280;44475;53.206;-6.106;2023-04-09T12:40:26;101208.28;;;23.61;42.75
58698;BME280;44475;53.206;-6.106;2023-04-09T12:42:52;101213.41;;;23.54;42.89
58698;BME280;44475;53.206;-6.106;2023-04-09T12:45:19;101194.25;;;23.65;42.67
58698;BME280;44475;53.206;-6.106;2023-04-09T12:47:46;101199.09;;;23.62;42.71
58698;BME280;44475;53.206;-6.106;2023-04-09T12:50:13;101195.13;;;23.66;42.51
58698;BME280;44475;53.206;-6.106;2023-04-09T12:52:40;101199.75;;;23.54;42.51
58698;BME280;44475;53.206;-6.106;2023-04-09T12:55:07;101183.72;;;23.49;43.01
58698;BME280;44475;53.206;-6.106;2023-04-09T12:57:35;101178.19;;;23.61;42.64
58698;BME280;44475;53.206;-6.106;2023-04-09T13:00:02;101172.91;;;23.47;42.98
58698;BME280;44475;53.206;-6.106;2023-04-09T13:02:29;101162.31;;;23.54;43.00
58698;BME280;44475;53.206;-6.106;2023-04-09T13:04:56;101169.91;;;23.51;42.79
58698;BME280;44475;53.206;-6.106;2023-04-09T13:07:22;101190.78;;;23.52;42.87
58698;BME280;44475;53.206;-6.106;2023-04-09T13:09:50;101187.78;;;23.66;42.50
58698;BME280;44475;53.206;-6.106;2023-04-09T13:12:17;101178.06;;;23.62;42.73
58698;BME280;44475;53.206;-6.106;2023-04-09T13:14:47;101171.41;;;23.55;42.81
58698;BME280;44475;53.206;-6.106;2023-04-09T13:17:14;101173.25;;;23.54;42.53